Butler, Minnesota
Current Conditions -  °F | °C
As of 3:52 PM on Tuesday 25 Nov 2014 (Local Time) from KADC Reporting Station
Scattered Clouds Scattered Clouds  
Wind Chill: 13°   Ceiling: Unl
Heat Index: 21°   Visibility: 10mi
Dew Point: 10°   Wind: 7mph
Humidity: 63%   Direction: 140°SE
Pressure: 29.92"   Gusts: NA
Location:  46.5882°N, 95.4075°W
Report Text: KADC 252152Z AUTO 14006KT 10SM SCT021 SCT035 M06/M12 A2992 RMK AO2
Loading
Personal Weather Stations






























Interactive Weather Map New forecast layout! Learn more

10-Day Weather Forecast

Advertisements
Track Severe Weather on mobile